createdAt,value
2022-08-02T00:00:35.013Z,15.25
2022-08-02T00:03:02.041Z,15.24
2022-08-02T00:05:28.976Z,15.22
2022-08-02T00:07:55.948Z,15.18
2022-08-02T00:10:22.902Z,15.13
2022-08-02T00:12:49.904Z,15.04
2022-08-02T00:15:16.813Z,14.94
2022-08-02T00:17:46.377Z,14.93
2022-08-02T00:20:15.765Z,14.85
2022-08-02T00:22:42.664Z,14.80
2022-08-02T00:25:09.789Z,14.76
2022-08-02T00:27:36.699Z,14.75
2022-08-02T00:30:04.357Z,14.66
2022-08-02T00:32:31.404Z,14.65
2022-08-02T00:34:58.609Z,14.68
2022-08-02T00:37:25.486Z,14.67
2022-08-02T00:39:52.487Z,14.64
2022-08-02T00:42:19.397Z,14.61
2022-08-02T00:44:46.356Z,14.63
2022-08-02T00:47:19.187Z,14.62
2022-08-02T00:49:46.998Z,14.63
2022-08-02T00:52:14.218Z,14.59
2022-08-02T00:54:41.406Z,14.52
2022-08-02T00:57:08.288Z,14.54
2022-08-02T00:59:35.224Z,14.51
2022-08-02T01:02:02.214Z,14.49
2022-08-02T01:04:31.546Z,14.48
2022-08-02T01:07:01.158Z,14.44
2022-08-02T01:09:28.562Z,14.38
2022-08-02T01:11:55.621Z,14.37
2022-08-02T01:14:24.586Z,14.33
2022-08-02T01:17:00.433Z,14.35
2022-08-02T01:19:37.905Z,14.31
2022-08-02T01:22:58.549Z,14.25
2022-08-02T01:25:47.373Z,14.22
2022-08-02T01:28:38.700Z,14.14
2022-08-02T01:31:19.185Z,14.04
2022-08-02T01:34:11.174Z,14.04
2022-08-02T01:36:50.163Z,14.02
2022-08-02T01:39:27.349Z,13.99
2022-08-02T01:42:01.525Z,13.97
2022-08-02T01:44:34.808Z,13.96
2022-08-02T01:47:08.253Z,13.85
2022-08-02T01:49:38.100Z,13.87
2022-08-02T01:52:23.126Z,13.74
2022-08-02T01:55:09.843Z,13.77
2022-08-02T01:57:43.250Z,13.72
2022-08-02T02:00:11.906Z,13.70
2022-08-02T02:02:43.933Z,13.69
2022-08-02T02:05:16.994Z,13.65
2022-08-02T02:07:46.148Z,13.63
2022-08-02T02:10:17.665Z,13.61
2022-08-02T02:12:49.782Z,13.55
2022-08-02T02:15:16.715Z,13.56
2022-08-02T02:18:11.912Z,13.52
2022-08-02T02:20:34.965Z,13.47
2022-08-02T02:23:03.132Z,13.56
2022-08-02T02:25:35.545Z,13.45
2022-08-02T02:28:11.288Z,13.49
2022-08-02T02:30:42.489Z,13.44
2022-08-02T02:33:10.406Z,13.44
2022-08-02T02:35:38.440Z,13.37
2022-08-02T02:38:10.195Z,13.37
2022-08-02T02:40:38.138Z,13.32
2022-08-02T02:43:06.491Z,13.31
2022-08-02T02:45:35.235Z,13.32
2022-08-02T02:48:04.066Z,13.29
2022-08-02T02:50:31.618Z,13.30
2022-08-02T02:53:00.271Z,13.26
2022-08-02T02:55:28.627Z,13.28
2022-08-02T02:57:56.727Z,13.31
2022-08-02T03:00:44.321Z,13.30
2022-08-02T03:03:13.180Z,13.33
2022-08-02T03:05:40.132Z,13.34
2022-08-02T03:08:07.211Z,13.32
2022-08-02T03:10:34.847Z,13.27
2022-08-02T03:13:01.838Z,13.28
2022-08-02T03:15:29.318Z,13.25
2022-08-02T03:17:56.345Z,13.22
2022-08-02T03:20:23.291Z,13.17
2022-08-02T03:22:50.514Z,13.17
2022-08-02T03:25:18.800Z,13.19
2022-08-02T03:27:46.590Z,13.17
2022-08-02T03:30:14.702Z,13.13
2022-08-02T03:32:46.218Z,13.12
2022-08-02T03:35:22.957Z,13.08
2022-08-02T03:37:52.814Z,13.07
2022-08-02T03:40:19.801Z,13.00
2022-08-02T03:42:47.595Z,13.03
2022-08-02T03:45:15.123Z,12.93
2022-08-02T03:47:44.066Z,12.89
2022-08-02T03:50:14.463Z,12.84
2022-08-02T03:52:44.752Z,12.86
2022-08-02T03:55:13.054Z,12.77
2022-08-02T03:57:43.853Z,12.74
2022-08-02T04:00:13.629Z,12.57
2022-08-02T04:02:40.884Z,12.65
2022-08-02T04:05:08.710Z,12.64
2022-08-02T04:08:33.250Z,12.63
2022-08-02T04:10:22.598Z,12.55
2022-08-02T04:12:49.555Z,12.49
2022-08-02T04:15:16.831Z,12.54
2022-08-02T04:17:51.362Z,12.60
2022-08-02T04:20:21.997Z,12.60
2022-08-02T04:23:10.226Z,12.61
2022-08-02T04:25:40.449Z,12.57
2022-08-02T04:28:16.885Z,12.64
2022-08-02T04:30:46.615Z,12.61
2022-08-02T04:33:14.565Z,12.63
2022-08-02T04:35:41.858Z,12.63
2022-08-02T04:38:10.671Z,12.68
2022-08-02T04:40:38.304Z,12.68
2022-08-02T04:43:05.411Z,12.74
2022-08-02T04:45:33.408Z,12.72
2022-08-02T04:48:07.420Z,12.80
2022-08-02T04:50:35.368Z,12.76
2022-08-02T04:53:02.388Z,12.95
2022-08-02T04:55:29.950Z,12.85
2022-08-02T04:57:58.645Z,12.93
2022-08-02T05:00:27.986Z,12.94
2022-08-02T05:02:59.913Z,13.03
2022-08-02T05:05:27.510Z,13.02
2022-08-02T05:07:55.064Z,13.10
2022-08-02T05:10:22.692Z,13.17
2022-08-02T05:12:50.079Z,13.32
2022-08-02T05:15:18.423Z,13.41
2022-08-02T05:17:48.682Z,13.59
2022-08-02T05:20:19.224Z,13.75
2022-08-02T05:22:47.062Z,13.91
2022-08-02T05:25:15.087Z,14.07
2022-08-02T05:27:42.263Z,14.19
2022-08-02T05:30:10.778Z,14.36
2022-08-02T05:32:49.537Z,14.42
2022-08-02T05:35:25.029Z,14.53
2022-08-02T05:37:52.623Z,14.58
2022-08-02T05:40:25.528Z,14.78
2022-08-02T05:42:54.336Z,14.88
2022-08-02T05:45:21.954Z,15.01
2022-08-02T05:47:49.048Z,15.19
2022-08-02T05:50:16.120Z,15.27
2022-08-02T05:52:49.020Z,15.57
2022-08-02T05:55:28.447Z,15.69
2022-08-02T05:58:14.317Z,15.85
2022-08-02T06:00:42.355Z,15.94
2022-08-02T06:03:39.509Z,16.17
2022-08-02T06:06:13.981Z,16.29
2022-08-02T06:08:51.030Z,16.34
2022-08-02T06:12:02.091Z,16.51
2022-08-02T06:14:33.383Z,16.58
2022-08-02T06:17:05.063Z,16.78
2022-08-02T06:19:36.634Z,16.89
2022-08-02T06:22:31.973Z,16.95
2022-08-02T06:25:05.087Z,17.00
2022-08-02T06:27:33.257Z,17.05
2022-08-02T06:30:02.022Z,17.20
2022-08-02T06:32:28.928Z,17.42
2022-08-02T06:34:55.978Z,17.62
2022-08-02T06:37:58.367Z,17.89
2022-08-02T06:40:49.013Z,18.06
2022-08-02T06:43:52.717Z,18.20
2022-08-02T06:46:38.088Z,18.40
2022-08-02T06:49:07.157Z,18.43
2022-08-02T06:51:34.653Z,18.50
2022-08-02T06:54:01.710Z,18.63
2022-08-02T06:56:28.620Z,18.77
2022-08-02T06:58:55.809Z,18.83
2022-08-02T07:01:23.090Z,18.93
2022-08-02T07:03:50.311Z,19.00
2022-08-02T07:06:17.232Z,18.97
2022-08-02T07:08:59.460Z,19.19
2022-08-02T07:11:31.510Z,19.41
2022-08-02T07:13:58.703Z,19.63
2022-08-02T07:16:25.748Z,19.74
2022-08-02T07:18:52.862Z,19.87
2022-08-02T07:21:57.021Z,20.14
2022-08-02T07:24:06.910Z,20.37
2022-08-02T07:29:26.187Z,20.64
2022-08-02T07:32:23.998Z,20.80
2022-08-02T07:34:53.019Z,20.97
2022-08-02T07:37:52.791Z,21.09
2022-08-02T07:40:19.791Z,21.16
2022-08-02T07:42:57.991Z,21.28
2022-08-02T07:45:27.491Z,21.41
2022-08-02T07:47:55.003Z,21.33
2022-08-02T07:50:25.727Z,21.52
2022-08-02T07:52:53.656Z,21.55
2022-08-02T07:55:39.339Z,21.68
2022-08-02T07:58:11.026Z,21.88
2022-08-02T08:00:44.272Z,21.97
2022-08-02T08:03:11.780Z,22.09
2022-08-02T08:05:38.831Z,22.20
2022-08-02T08:08:06.097Z,22.30
2022-08-02T08:10:36.083Z,22.45
2022-08-02T08:13:03.127Z,22.54
2022-08-02T08:15:30.105Z,22.64
2022-08-02T08:17:57.071Z,22.71
2022-08-02T08:20:30.487Z,22.70
2022-08-02T08:22:57.505Z,22.73
2022-08-02T08:25:24.461Z,22.74
2022-08-02T08:27:54.283Z,22.91
2022-08-02T08:30:37.665Z,23.03
2022-08-02T08:33:21.009Z,23.19
2022-08-02T08:35:48.946Z,23.36
2022-08-02T08:38:16.776Z,23.52
2022-08-02T08:40:49.579Z,23.48
2022-08-02T08:43:17.089Z,23.42
2022-08-02T08:45:55.928Z,23.49
2022-08-02T08:48:31.170Z,23.68
2022-08-02T08:51:11.935Z,23.77
2022-08-02T08:53:43.584Z,23.93
2022-08-02T08:56:15.915Z,24.04
2022-08-02T08:58:47.891Z,24.13
2022-08-02T09:01:17.160Z,24.24
2022-08-02T09:03:44.886Z,24.35
2022-08-02T09:06:18.567Z,24.50
2022-08-02T09:08:46.542Z,24.47
2022-08-02T09:11:19.027Z,24.48
2022-08-02T09:13:56.400Z,24.32
2022-08-02T09:17:22.080Z,24.54
2022-08-02T09:20:10.710Z,24.54
2022-08-02T09:22:46.933Z,24.58
2022-08-02T09:25:16.570Z,24.58
2022-08-02T09:27:43.504Z,24.63
2022-08-02T09:30:14.258Z,24.80
2022-08-02T09:32:54.007Z,25.06
2022-08-02T09:36:06.664Z,25.37
2022-08-02T09:38:33.179Z,25.47
2022-08-02T09:41:00.766Z,25.54
2022-08-02T09:44:04.763Z,25.78
2022-08-02T09:46:38.061Z,25.83
2022-08-02T09:49:14.784Z,25.75
2022-08-02T09:51:47.634Z,25.61
2022-08-02T09:54:28.606Z,25.54
2022-08-02T09:56:58.866Z,25.71
2022-08-02T09:59:27.039Z,25.80
2022-08-02T10:02:01.883Z,26.03
2022-08-02T10:04:34.409Z,26.12
2022-08-02T10:07:20.055Z,26.07
2022-08-02T10:09:50.052Z,26.28
2022-08-02T10:12:17.330Z,26.64
2022-08-02T10:14:45.705Z,26.95
2022-08-02T10:17:12.902Z,27.07
2022-08-02T10:20:03.381Z,27.25
2022-08-02T10:22:27.606Z,27.42
2022-08-02T10:24:55.042Z,27.56
2022-08-02T10:27:26.543Z,27.67
2022-08-02T10:29:57.835Z,27.81
2022-08-02T10:32:34.782Z,28.15
2022-08-02T10:35:19.893Z,28.28
2022-08-02T10:38:01.692Z,28.23
2022-08-02T10:40:45.499Z,28.33
2022-08-02T10:43:13.253Z,28.14
2022-08-02T10:45:40.331Z,28.06
2022-08-02T10:48:12.255Z,28.24
2022-08-02T10:51:04.307Z,28.50
2022-08-02T10:53:33.171Z,28.73
2022-08-02T10:56:09.245Z,28.90
2022-08-02T10:58:36.571Z,28.81
2022-08-02T11:01:08.350Z,28.88
2022-08-02T11:03:40.909Z,28.83
2022-08-02T11:06:25.032Z,28.87
2022-08-02T11:09:33.993Z,29.03
2022-08-02T11:12:16.542Z,29.14
2022-08-02T11:14:46.952Z,28.97
2022-08-02T11:17:18.916Z,28.89
2022-08-02T11:20:17.490Z,28.68
2022-08-02T11:22:46.184Z,28.73
2022-08-02T11:25:22.177Z,28.80
2022-08-02T11:27:53.130Z,28.80
2022-08-02T11:30:26.429Z,28.79
2022-08-02T11:32:59.156Z,28.90
2022-08-02T11:35:39.385Z,28.40
2022-08-02T11:38:18.920Z,28.55
2022-08-02T11:40:47.347Z,28.83
2022-08-02T11:43:22.465Z,29.08
2022-08-02T11:45:52.554Z,29.36
2022-08-02T11:48:35.514Z,29.28
2022-08-02T11:51:12.599Z,29.11
2022-08-02T11:53:58.248Z,28.98
2022-08-02T11:56:32.530Z,28.96
2022-08-02T11:59:09.099Z,28.81
2022-08-02T12:01:45.414Z,28.71
2022-08-02T12:04:19.444Z,28.45
2022-08-02T12:06:59.139Z,28.48
2022-08-02T12:09:28.987Z,28.27
2022-08-02T12:11:57.046Z,28.36
2022-08-02T12:14:27.329Z,28.34
2022-08-02T12:17:13.397Z,28.29
2022-08-02T12:19:44.943Z,28.27
2022-08-02T12:22:27.302Z,28.53
2022-08-02T12:24:57.204Z,28.74
2022-08-02T12:27:43.466Z,29.05
2022-08-02T12:30:13.041Z,29.34
2022-08-02T12:32:40.861Z,29.41
2022-08-02T12:35:13.224Z,29.27
2022-08-02T12:37:44.057Z,29.23
2022-08-02T12:40:31.827Z,29.31
2022-08-02T12:43:05.372Z,29.28
2022-08-02T12:45:49.815Z,29.33
2022-08-02T12:49:15.847Z,29.30
2022-08-02T12:51:50.906Z,29.25
2022-08-02T12:54:40.069Z,29.35
2022-08-02T12:57:12.545Z,29.33
2022-08-02T12:59:42.158Z,29.33
2022-08-02T13:02:12.583Z,29.18
2022-08-02T13:04:40.659Z,29.15
2022-08-02T13:07:09.069Z,29.12
2022-08-02T13:09:38.698Z,29.05
2022-08-02T13:12:07.308Z,29.25
2022-08-02T13:14:40.381Z,29.31
2022-08-02T13:17:10.486Z,29.50
2022-08-02T13:19:38.516Z,29.29
2022-08-02T13:22:08.359Z,29.19
2022-08-02T13:24:55.601Z,29.17
2022-08-02T13:27:24.476Z,29.40
2022-08-02T13:29:52.585Z,29.47
2022-08-02T13:32:20.176Z,29.50
2022-08-02T13:34:47.406Z,29.64
2022-08-02T13:37:14.992Z,29.71
2022-08-02T13:39:41.910Z,29.72
2022-08-02T13:42:16.934Z,29.75
2022-08-02T13:44:44.516Z,29.79
2022-08-02T13:47:11.502Z,29.84
2022-08-02T13:49:50.566Z,29.95
2022-08-02T13:52:20.344Z,29.91
2022-08-02T13:54:47.303Z,29.89
2022-08-02T13:57:14.299Z,30.08
2022-08-02T13:59:56.570Z,30.16
2022-08-02T14:02:28.291Z,30.33
2022-08-02T14:04:56.269Z,30.18
2022-08-02T14:07:23.305Z,30.09
2022-08-02T14:09:50.353Z,30.07
2022-08-02T14:12:17.631Z,29.91
2022-08-02T14:14:44.735Z,30.11
2022-08-02T14:17:11.767Z,30.10
2022-08-02T14:19:39.856Z,29.99
2022-08-02T14:22:11.599Z,30.07
2022-08-02T14:24:40.239Z,30.01
2022-08-02T14:27:07.773Z,29.97
2022-08-02T14:29:34.735Z,30.02
2022-08-02T14:32:02.275Z,30.03
2022-08-02T14:34:29.489Z,30.14
2022-08-02T14:36:57.126Z,30.37
2022-08-02T14:39:24.096Z,30.32
2022-08-02T14:41:58.475Z,30.31
2022-08-02T14:44:30.564Z,30.25
2022-08-02T14:46:57.892Z,30.09
2022-08-02T14:49:26.801Z,30.26
2022-08-02T14:51:55.225Z,30.41
2022-08-02T14:54:28.089Z,30.31
2022-08-02T14:57:03.231Z,30.23
2022-08-02T14:59:31.052Z,30.16
2022-08-02T15:01:59.438Z,30.14
2022-08-02T15:04:27.008Z,30.19
2022-08-02T15:06:55.030Z,30.26
2022-08-02T15:09:22.859Z,30.13
2022-08-02T15:11:50.324Z,30.22
2022-08-02T15:14:20.588Z,30.03
2022-08-02T15:16:57.104Z,30.04
2022-08-02T15:19:44.977Z,30.18
2022-08-02T15:22:13.707Z,30.18
2022-08-02T15:24:44.956Z,30.17
2022-08-02T15:27:14.108Z,30.00
2022-08-02T15:29:45.189Z,30.03
2022-08-02T15:32:13.612Z,30.14
2022-08-02T15:34:41.111Z,30.36
2022-08-02T15:37:08.097Z,30.35
2022-08-02T15:39:35.163Z,30.34
2022-08-02T15:42:02.149Z,30.21
2022-08-02T15:44:29.157Z,30.10
2022-08-02T15:46:57.284Z,30.03
2022-08-02T15:49:25.949Z,29.79
2022-08-02T15:51:55.220Z,29.82
2022-08-02T15:54:22.156Z,29.81
2022-08-02T15:56:49.560Z,29.59
2022-08-02T15:59:16.949Z,29.52
2022-08-02T16:01:47.356Z,29.46
2022-08-02T16:04:15.678Z,29.42
2022-08-02T16:06:43.635Z,29.41
2022-08-02T16:09:10.645Z,29.34
2022-08-02T16:11:37.788Z,29.36
2022-08-02T16:14:04.954Z,29.50
2022-08-02T16:16:34.949Z,29.59
2022-08-02T16:19:47.940Z,29.56
2022-08-02T16:21:52.364Z,29.56
2022-08-02T16:24:19.399Z,29.45
2022-08-02T16:26:46.449Z,29.22
2022-08-02T16:29:13.884Z,29.11
2022-08-02T16:31:47.435Z,28.89
2022-08-02T16:34:15.018Z,28.80
2022-08-02T16:36:42.019Z,28.77
2022-08-02T16:39:08.934Z,28.78
2022-08-02T16:41:51.091Z,28.80
2022-08-02T16:44:26.937Z,28.79
2022-08-02T16:47:01.254Z,28.78
2022-08-02T16:50:05.091Z,28.79
2022-08-02T16:52:20.021Z,28.84
2022-08-02T16:54:49.766Z,28.88
2022-08-02T16:57:19.801Z,28.97
2022-08-02T16:59:57.645Z,28.97
2022-08-02T17:02:27.814Z,28.98
2022-08-02T17:04:55.678Z,28.96
2022-08-02T17:08:15.198Z,28.96
2022-08-02T17:10:12.173Z,28.86
2022-08-02T17:12:40.105Z,28.68
2022-08-02T17:16:16.439Z,28.78
2022-08-02T17:17:55.962Z,28.77
2022-08-02T17:20:24.420Z,28.73
2022-08-02T17:23:00.585Z,28.70
2022-08-02T17:25:29.017Z,28.64
2022-08-02T17:27:59.136Z,28.65
2022-08-02T17:30:26.763Z,28.67
2022-08-02T17:35:52.550Z,28.73
2022-08-02T17:38:30.329Z,28.72
2022-08-02T17:40:58.747Z,28.78
2022-08-02T17:43:29.546Z,28.78
2022-08-02T17:45:59.778Z,28.77
2022-08-02T17:48:50.100Z,28.62
2022-08-02T17:52:15.643Z,28.74
2022-08-02T17:54:07.190Z,28.82
2022-08-02T17:56:42.595Z,28.85
2022-08-02T17:59:31.249Z,28.78
2022-08-02T18:02:11.092Z,28.87
2022-08-02T18:04:39.074Z,28.72
2022-08-02T18:07:09.741Z,28.65
2022-08-02T18:09:43.261Z,28.59
2022-08-02T18:12:18.408Z,28.56
2022-08-02T18:14:49.288Z,28.52
2022-08-02T18:17:17.817Z,28.53
2022-08-02T18:19:57.342Z,28.49
2022-08-02T18:22:31.103Z,28.44
2022-08-02T18:25:09.217Z,28.35
2022-08-02T18:27:38.858Z,28.30
2022-08-02T18:30:08.847Z,28.21
2022-08-02T18:33:58.364Z,28.17
2022-08-02T18:35:26.712Z,28.06
2022-08-02T18:37:57.367Z,28.04
2022-08-02T18:40:28.110Z,27.99
2022-08-02T18:42:57.571Z,27.97
2022-08-02T18:45:25.517Z,27.90
2022-08-02T18:48:12.803Z,27.85
2022-08-02T18:50:46.846Z,27.81
2022-08-02T18:53:14.329Z,27.75
2022-08-02T18:56:00.165Z,27.73
2022-08-02T18:58:29.215Z,27.66
2022-08-02T19:00:59.157Z,27.59
2022-08-02T19:03:27.487Z,27.51
2022-08-02T19:05:54.610Z,27.45
2022-08-02T19:08:26.168Z,27.39
2022-08-02T19:10:55.970Z,27.30
2022-08-02T19:13:23.940Z,27.22
2022-08-02T19:15:51.113Z,27.12
2022-08-02T19:18:19.774Z,27.07
2022-08-02T19:20:59.607Z,26.98
2022-08-02T19:23:30.042Z,26.95
2022-08-02T19:25:57.374Z,26.87
2022-08-02T19:28:26.423Z,26.80
2022-08-02T19:30:56.414Z,26.74
2022-08-02T19:33:54.389Z,26.68
2022-08-02T19:36:11.762Z,26.61
2022-08-02T19:38:43.861Z,26.55
2022-08-02T19:41:13.715Z,26.48
2022-08-02T19:44:25.008Z,26.39
2022-08-02T19:46:27.953Z,26.35
2022-08-02T19:48:55.145Z,26.28
2022-08-02T19:51:54.558Z,26.24
2022-08-02T19:54:10.924Z,26.18
2022-08-02T19:56:40.387Z,26.16
2022-08-02T19:59:12.909Z,26.14
2022-08-02T20:01:46.423Z,26.11
2022-08-02T20:04:23.245Z,26.07
2022-08-02T20:06:51.079Z,25.99
2022-08-02T20:09:21.182Z,25.93
2022-08-02T20:11:54.528Z,25.85
2022-08-02T20:14:26.867Z,25.77
2022-08-02T20:17:11.704Z,25.69
2022-08-02T20:19:40.258Z,25.60
2022-08-02T20:22:07.839Z,25.61
2022-08-02T20:24:35.096Z,25.59
2022-08-02T20:27:03.008Z,25.57
2022-08-02T20:29:43.197Z,25.52
2022-08-02T20:32:12.446Z,25.27
2022-08-02T20:34:39.734Z,25.36
2022-08-02T20:38:00.218Z,25.38
2022-08-02T20:40:02.781Z,25.27
2022-08-02T20:42:29.788Z,25.22
2022-08-02T20:44:57.412Z,25.16
2022-08-02T20:47:28.461Z,25.09
2022-08-02T20:50:30.594Z,25.03
2022-08-02T20:53:04.166Z,24.97
2022-08-02T20:55:32.045Z,24.83
2022-08-02T20:58:01.865Z,24.96
2022-08-02T21:00:30.339Z,24.93
2022-08-02T21:03:01.146Z,24.93
2022-08-02T21:05:43.992Z,24.72
2022-08-02T21:08:20.472Z,24.90
2022-08-02T21:10:52.231Z,24.84
2022-08-02T21:13:23.071Z,24.83
2022-08-02T21:15:52.124Z,24.80
2022-08-02T21:18:30.248Z,24.72
2022-08-02T21:21:09.288Z,24.73
2022-08-02T21:23:37.661Z,24.63
2022-08-02T21:26:06.753Z,24.60
2022-08-02T21:28:44.050Z,24.52
2022-08-02T21:31:15.953Z,24.49
2022-08-02T21:33:47.178Z,24.45
2022-08-02T21:36:31.709Z,24.49
2022-08-02T21:39:04.703Z,24.37
2022-08-02T21:41:39.902Z,24.35
2022-08-02T21:44:21.739Z,24.31
2022-08-02T21:46:55.038Z,24.29
2022-08-02T21:49:41.115Z,24.26
2022-08-02T21:52:11.688Z,24.20
2022-08-02T21:57:25.698Z,24.20
2022-08-02T22:00:02.062Z,24.18
2022-08-02T22:02:35.853Z,24.15
2022-08-02T22:05:05.491Z,24.10
2022-08-02T22:07:41.690Z,24.05
2022-08-02T22:10:12.874Z,23.96
2022-08-02T22:12:39.917Z,23.83
2022-08-02T22:15:11.551Z,23.71
2022-08-02T22:17:51.235Z,23.64
2022-08-02T22:20:21.298Z,23.59
2022-08-02T22:22:52.221Z,23.47
2022-08-02T22:25:21.754Z,23.43
2022-08-02T22:28:11.761Z,23.34
2022-08-02T22:31:07.590Z,23.31
2022-08-02T22:34:00.811Z,23.21
2022-08-02T22:36:43.528Z,23.21
2022-08-02T22:39:18.671Z,23.21
2022-08-02T22:42:00.904Z,23.18
2022-08-02T22:44:35.656Z,23.10
2022-08-02T22:47:07.542Z,22.88
2022-08-02T22:49:53.200Z,23.02
2022-08-02T22:52:24.024Z,22.94
2022-08-02T22:54:51.182Z,22.92
2022-08-02T22:57:30.002Z,22.85
2022-08-02T22:58:39.111Z,28.71
2022-08-02T22:59:03.802Z,24.21
2022-08-02T22:59:59.579Z,22.85
2022-08-02T23:02:27.237Z,22.81
2022-08-02T23:04:55.080Z,22.75
2022-08-02T23:07:22.033Z,22.69
2022-08-02T23:09:49.073Z,22.67
2022-08-02T23:12:19.267Z,22.63
2022-08-02T23:14:52.221Z,22.60
2022-08-02T23:17:39.767Z,22.56
2022-08-02T23:20:09.726Z,22.48
2022-08-02T23:22:37.511Z,22.46
2022-08-02T23:25:06.240Z,22.40
2022-08-02T23:27:33.755Z,22.13
2022-08-02T23:30:01.985Z,22.26
2022-08-02T23:32:29.213Z,22.24
2022-08-02T23:34:57.257Z,22.25
2022-08-02T23:37:24.825Z,22.24
2022-08-02T23:39:51.947Z,22.21
2022-08-02T23:42:19.217Z,22.16
2022-08-02T23:44:46.373Z,22.13
2022-08-02T23:47:13.300Z,22.09
2022-08-02T23:49:40.535Z,22.06
2022-08-02T23:52:07.575Z,22.03
2022-08-02T23:54:34.616Z,22.03
2022-08-02T23:57:20.126Z,21.99
2022-08-02T23:59:49.892Z,21.91
